Alkabo, ND

9:53 AM CST on February 09, 2016 (GMT -0600)
South of Alamo, ND | | Change Station
CLOSE
Current Station
Personal Weather Station
Location: ALAMO, ND
Elevation: 2116 ft
Nearby Weather Stations

Elev 2116 ft 48.50 °N, 103.55 °W | Updated 17 seconds ago

Overcast
Overcast
28.2 °F
Feels Like 22 °F
N
5.4
Wind Variable Wind from NNW
Gusts 10.1 mph

Today
High -- | Low -- °F
--% Chance of Precip.
Yesterday
High -- | Low -- °F
Precip. -- in
Pressure 30.30 in
Visibility 10.0 miles
Clouds Mostly Cloudy 6500 ft
Overcast 10000 ft
Windchill 22 °F
Dew Point 22 °F
Humidity 78%
Rainfall 0.00 in
Snow Depth Not available.
8:13 AM 6:06 PM
New Moon, 1% visible
METAR KISN 091452Z AUTO 32005KT 10SM BKN065 OVC100 M01/M05 A3022 RMK AO2 SLP259 T10061050 53007
Pressure 30.30 in
Visibility 10.0 miles
Clouds Mostly Cloudy 6500 ft
Overcast 10000 ft
Windchill 22 °F
Dew Point 22 °F
Humidity 78%
Rainfall 0.00 in
Snow Depth Not available.
8:13 AM 6:06 PM
New Moon, 1% visible
METAR KISN 091452Z AUTO 32005KT 10SM BKN065 OVC100 M01/M05 A3022 RMK AO2 SLP259 T10061050 53007

10-Day Weather Forecast

Almanac

Astronomy

Feb. 09, 2016 Rise Set
Actual Time
Civil Twilight
Nautical Twilight
Astronomical Twilight
Moon
Length of Visible Light
Length of Day
Tomorrow will be .
, % of the Moon is Illuminated

Today's Extremes

State Highs State Lows

Community

WunderPhotos

Upload Photos

1,891,628 photos uploaded!

WunderBlog® & News

Nearby

Air Quality

  Air Quality AQ Index Pollutant
Not available.

Snow Depth

Station Depth Elevation

Earthquake Activity

City Distance Mag. Time & Date
Minimum magnitude displayed is 2.5.

Coastal Water Temperatures

Place Temperature

Stations

Nearby Weather Stations

Station Location Temp. Windchill Dew Point Humidity Wind Precip. Elev Updated Type
                   

Watches & Warnings

There are currently no watches in effect.